sensor_id;sensor_type;location;lat;lon;timestamp;P1;durP1;ratioP1;P2;durP2;ratioP2
23404;SDS011;11875;49.356;2.718;2023-04-15T00:00:28;2.97;;;1.80;;
23404;SDS011;11875;49.356;2.718;2023-04-15T00:02:54;5.73;;;2.00;;
23404;SDS011;11875;49.356;2.718;2023-04-15T00:05:20;5.33;;;1.70;;
23404;SDS011;11875;49.356;2.718;2023-04-15T00:07:45;4.87;;;1.73;;
23404;SDS011;11875;49.356;2.718;2023-04-15T00:10:12;5.93;;;2.17;;
23404;SDS011;11875;49.356;2.718;2023-04-15T00:12:38;3.40;;;1.70;;
23404;SDS011;11875;49.356;2.718;2023-04-15T00:15:05;7.30;;;2.47;;
23404;SDS011;11875;49.356;2.718;2023-04-15T00:17:33;7.63;;;2.63;;
23404;SDS011;11875;49.356;2.718;2023-04-15T00:19:59;4.07;;;1.90;;
23404;SDS011;11875;49.356;2.718;2023-04-15T00:22:25;4.87;;;1.90;;
23404;SDS011;11875;49.356;2.718;2023-04-15T00:24:54;3.93;;;1.90;;
23404;SDS011;11875;49.356;2.718;2023-04-15T00:27:19;2.87;;;1.60;;
23404;SDS011;11875;49.356;2.718;2023-04-15T00:29:45;2.93;;;2.00;;
23404;SDS011;11875;49.356;2.718;2023-04-15T00:32:10;3.03;;;1.90;;
23404;SDS011;11875;49.356;2.718;2023-04-15T00:34:36;4.50;;;1.67;;
23404;SDS011;11875;49.356;2.718;2023-04-15T00:37:02;3.73;;;1.77;;
23404;SDS011;11875;49.356;2.718;2023-04-15T00:39:27;4.97;;;2.00;;
23404;SDS011;11875;49.356;2.718;2023-04-15T00:41:53;3.80;;;2.00;;
23404;SDS011;11875;49.356;2.718;2023-04-15T00:44:19;3.20;;;1.70;;
23404;SDS011;11875;49.356;2.718;2023-04-15T00:46:47;4.00;;;2.03;;
23404;SDS011;11875;49.356;2.718;2023-04-15T00:49:15;3.30;;;2.00;;
23404;SDS011;11875;49.356;2.718;2023-04-15T00:51:42;8.17;;;2.87;;
23404;SDS011;11875;49.356;2.718;2023-04-15T00:54:08;8.43;;;4.80;;
23404;SDS011;11875;49.356;2.718;2023-04-15T00:56:35;17.63;;;8.10;;
23404;SDS011;11875;49.356;2.718;2023-04-15T00:59:01;14.17;;;6.70;;
23404;SDS011;11875;49.356;2.718;2023-04-15T01:01:28;6.07;;;4.00;;
23404;SDS011;11875;49.356;2.718;2023-04-15T01:03:56;9.20;;;4.87;;
23404;SDS011;11875;49.356;2.718;2023-04-15T01:06:22;10.87;;;5.53;;
23404;SDS011;11875;49.356;2.718;2023-04-15T01:08:48;11.03;;;5.00;;
23404;SDS011;11875;49.356;2.718;2023-04-15T01:11:14;9.20;;;4.33;;
23404;SDS011;11875;49.356;2.718;2023-04-15T01:13:42;11.57;;;6.03;;
23404;SDS011;11875;49.356;2.718;2023-04-15T01:16:07;7.77;;;3.70;;
23404;SDS011;11875;49.356;2.718;2023-04-15T01:18:34;4.13;;;1.83;;
23404;SDS011;11875;49.356;2.718;2023-04-15T01:21:03;3.70;;;1.90;;
23404;SDS011;11875;49.356;2.718;2023-04-15T01:23:30;4.50;;;2.10;;
23404;SDS011;11875;49.356;2.718;2023-04-15T01:25:56;4.07;;;2.50;;
23404;SDS011;11875;49.356;2.718;2023-04-15T01:28:22;3.13;;;1.87;;
23404;SDS011;11875;49.356;2.718;2023-04-15T01:30:49;4.03;;;2.03;;
23404;SDS011;11875;49.356;2.718;2023-04-15T01:33:15;3.70;;;1.83;;
23404;SDS011;11875;49.356;2.718;2023-04-15T01:35:40;3.03;;;1.90;;
23404;SDS011;11875;49.356;2.718;2023-04-15T01:38:08;4.87;;;1.73;;
23404;SDS011;11875;49.356;2.718;2023-04-15T01:40:36;2.93;;;1.63;;
23404;SDS011;11875;49.356;2.718;2023-04-15T01:43:02;4.30;;;1.80;;
23404;SDS011;11875;49.356;2.718;2023-04-15T01:45:28;3.63;;;2.03;;
23404;SDS011;11875;49.356;2.718;2023-04-15T01:47:54;4.50;;;2.13;;
23404;SDS011;11875;49.356;2.718;2023-04-15T01:50:20;5.07;;;1.93;;
23404;SDS011;11875;49.356;2.718;2023-04-15T01:52:45;3.93;;;1.83;;
23404;SDS011;11875;49.356;2.718;2023-04-15T01:55:12;3.80;;;2.10;;
23404;SDS011;11875;49.356;2.718;2023-04-15T01:57:38;3.93;;;2.13;;
23404;SDS011;11875;49.356;2.718;2023-04-15T02:00:04;4.63;;;1.73;;
23404;SDS011;11875;49.356;2.718;2023-04-15T02:02:31;3.60;;;2.07;;
23404;SDS011;11875;49.356;2.718;2023-04-15T02:04:58;3.30;;;1.90;;
23404;SDS011;11875;49.356;2.718;2023-04-15T02:07:24;4.00;;;1.90;;
23404;SDS011;11875;49.356;2.718;2023-04-15T02:09:50;2.83;;;1.90;;
23404;SDS011;11875;49.356;2.718;2023-04-15T02:12:15;3.27;;;1.93;;
23404;SDS011;11875;49.356;2.718;2023-04-15T02:14:41;3.30;;;2.33;;
23404;SDS011;11875;49.356;2.718;2023-04-15T02:17:06;4.37;;;2.17;;
23404;SDS011;11875;49.356;2.718;2023-04-15T02:19:35;4.57;;;2.23;;
23404;SDS011;11875;49.356;2.718;2023-04-15T02:22:01;5.47;;;2.10;;
23404;SDS011;11875;49.356;2.718;2023-04-15T02:24:27;3.70;;;2.10;;
23404;SDS011;11875;49.356;2.718;2023-04-15T02:26:54;4.77;;;2.33;;
23404;SDS011;11875;49.356;2.718;2023-04-15T02:29:20;4.33;;;2.67;;
23404;SDS011;11875;49.356;2.718;2023-04-15T02:31:47;2.60;;;2.33;;
23404;SDS011;11875;49.356;2.718;2023-04-15T02:34:13;3.67;;;2.20;;
23404;SDS011;11875;49.356;2.718;2023-04-15T02:36:38;2.77;;;2.13;;
23404;SDS011;11875;49.356;2.718;2023-04-15T02:39:05;5.50;;;1.90;;
23404;SDS011;11875;49.356;2.718;2023-04-15T02:41:31;6.37;;;2.10;;
23404;SDS011;11875;49.356;2.718;2023-04-15T02:43:56;7.47;;;2.10;;
23404;SDS011;11875;49.356;2.718;2023-04-15T02:46:22;3.63;;;2.37;;
23404;SDS011;11875;49.356;2.718;2023-04-15T02:48:48;4.97;;;2.10;;
23404;SDS011;11875;49.356;2.718;2023-04-15T02:51:18;3.43;;;2.23;;
23404;SDS011;11875;49.356;2.718;2023-04-15T02:53:45;2.67;;;2.03;;
23404;SDS011;11875;49.356;2.718;2023-04-15T02:56:12;2.77;;;1.97;;
23404;SDS011;11875;49.356;2.718;2023-04-15T02:58:39;4.97;;;2.10;;
23404;SDS011;11875;49.356;2.718;2023-04-15T03:01:05;5.17;;;2.00;;
23404;SDS011;11875;49.356;2.718;2023-04-15T03:03:32;3.17;;;2.10;;
23404;SDS011;11875;49.356;2.718;2023-04-15T03:05:58;2.77;;;1.93;;
23404;SDS011;11875;49.356;2.718;2023-04-15T03:08:24;3.37;;;2.00;;
23404;SDS011;11875;49.356;2.718;2023-04-15T03:10:50;4.53;;;1.90;;
23404;SDS011;11875;49.356;2.718;2023-04-15T03:13:17;4.13;;;2.03;;
23404;SDS011;11875;49.356;2.718;2023-04-15T03:15:43;3.10;;;2.47;;
23404;SDS011;11875;49.356;2.718;2023-04-15T03:18:10;4.30;;;2.70;;
23404;SDS011;11875;49.356;2.718;2023-04-15T03:20:36;4.40;;;2.90;;
23404;SDS011;11875;49.356;2.718;2023-04-15T03:23:02;4.33;;;2.57;;
23404;SDS011;11875;49.356;2.718;2023-04-15T03:25:27;4.23;;;2.60;;
23404;SDS011;11875;49.356;2.718;2023-04-15T03:27:53;8.03;;;2.73;;
23404;SDS011;11875;49.356;2.718;2023-04-15T03:30:18;6.10;;;2.43;;
23404;SDS011;11875;49.356;2.718;2023-04-15T03:32:44;3.47;;;2.37;;
23404;SDS011;11875;49.356;2.718;2023-04-15T03:35:10;4.37;;;2.30;;
23404;SDS011;11875;49.356;2.718;2023-04-15T03:37:35;4.17;;;2.27;;
23404;SDS011;11875;49.356;2.718;2023-04-15T03:40:01;5.10;;;2.53;;
23404;SDS011;11875;49.356;2.718;2023-04-15T03:42:27;4.50;;;2.20;;
23404;SDS011;11875;49.356;2.718;2023-04-15T03:44:52;3.83;;;2.30;;
23404;SDS011;11875;49.356;2.718;2023-04-15T03:47:18;4.37;;;2.30;;
23404;SDS011;11875;49.356;2.718;2023-04-15T03:49:43;2.97;;;2.10;;
23404;SDS011;11875;49.356;2.718;2023-04-15T03:52:09;5.93;;;2.23;;
23404;SDS011;11875;49.356;2.718;2023-04-15T03:54:35;5.33;;;2.37;;
23404;SDS011;11875;49.356;2.718;2023-04-15T03:57:00;2.90;;;2.40;;
23404;SDS011;11875;49.356;2.718;2023-04-15T03:59:26;5.60;;;2.27;;
23404;SDS011;11875;49.356;2.718;2023-04-15T04:01:51;3.43;;;2.60;;
23404;SDS011;11875;49.356;2.718;2023-04-15T04:04:17;4.67;;;2.40;;
23404;SDS011;11875;49.356;2.718;2023-04-15T04:06:43;6.50;;;2.33;;
23404;SDS011;11875;49.356;2.718;2023-04-15T04:09:08;3.10;;;2.30;;
23404;SDS011;11875;49.356;2.718;2023-04-15T04:11:34;2.90;;;2.17;;
23404;SDS011;11875;49.356;2.718;2023-04-15T04:14:01;2.70;;;2.20;;
23404;SDS011;11875;49.356;2.718;2023-04-15T04:16:27;4.07;;;2.40;;
23404;SDS011;11875;49.356;2.718;2023-04-15T04:18:52;4.57;;;2.97;;
23404;SDS011;11875;49.356;2.718;2023-04-15T04:21:18;3.67;;;2.60;;
23404;SDS011;11875;49.356;2.718;2023-04-15T04:23:45;4.90;;;2.70;;
23404;SDS011;11875;49.356;2.718;2023-04-15T04:26:10;5.50;;;3.07;;
23404;SDS011;11875;49.356;2.718;2023-04-15T04:28:36;4.63;;;3.13;;
23404;SDS011;11875;49.356;2.718;2023-04-15T04:31:04;8.47;;;3.30;;
23404;SDS011;11875;49.356;2.718;2023-04-15T04:33:31;7.73;;;2.87;;
23404;SDS011;11875;49.356;2.718;2023-04-15T04:35:57;5.70;;;3.20;;
23404;SDS011;11875;49.356;2.718;2023-04-15T04:38:23;5.77;;;3.37;;
23404;SDS011;11875;49.356;2.718;2023-04-15T04:40:48;3.83;;;2.80;;
23404;SDS011;11875;49.356;2.718;2023-04-15T04:43:14;5.53;;;3.10;;
23404;SDS011;11875;49.356;2.718;2023-04-15T04:45:40;5.03;;;3.00;;
23404;SDS011;11875;49.356;2.718;2023-04-15T04:48:06;6.33;;;3.07;;
23404;SDS011;11875;49.356;2.718;2023-04-15T04:50:33;6.20;;;3.50;;
23404;SDS011;11875;49.356;2.718;2023-04-15T04:52:59;8.50;;;3.80;;
23404;SDS011;11875;49.356;2.718;2023-04-15T04:55:25;4.97;;;3.43;;
23404;SDS011;11875;49.356;2.718;2023-04-15T04:57:51;4.03;;;3.37;;
23404;SDS011;11875;49.356;2.718;2023-04-15T05:00:17;7.70;;;3.70;;
23404;SDS011;11875;49.356;2.718;2023-04-15T05:02:43;5.63;;;3.70;;
23404;SDS011;11875;49.356;2.718;2023-04-15T05:05:09;3.53;;;3.00;;
23404;SDS011;11875;49.356;2.718;2023-04-15T05:07:38;7.63;;;3.00;;
23404;SDS011;11875;49.356;2.718;2023-04-15T05:10:04;4.53;;;3.50;;
23404;SDS011;11875;49.356;2.718;2023-04-15T05:12:30;7.63;;;4.67;;
23404;SDS011;11875;49.356;2.718;2023-04-15T05:14:56;7.27;;;4.47;;
23404;SDS011;11875;49.356;2.718;2023-04-15T05:17:22;5.60;;;3.93;;
23404;SDS011;11875;49.356;2.718;2023-04-15T05:19:48;6.57;;;3.97;;
23404;SDS011;11875;49.356;2.718;2023-04-15T05:22:13;5.60;;;3.90;;
23404;SDS011;11875;49.356;2.718;2023-04-15T05:24:39;6.83;;;3.80;;
23404;SDS011;11875;49.356;2.718;2023-04-15T05:27:05;5.80;;;3.67;;
23404;SDS011;11875;49.356;2.718;2023-04-15T05:29:32;7.07;;;4.27;;
23404;SDS011;11875;49.356;2.718;2023-04-15T05:31:58;10.90;;;5.17;;
23404;SDS011;11875;49.356;2.718;2023-04-15T05:34:23;6.77;;;4.33;;
23404;SDS011;11875;49.356;2.718;2023-04-15T05:36:49;7.17;;;4.03;;
23404;SDS011;11875;49.356;2.718;2023-04-15T05:39:15;5.90;;;3.20;;
23404;SDS011;11875;49.356;2.718;2023-04-15T05:41:40;5.80;;;3.50;;
23404;SDS011;11875;49.356;2.718;2023-04-15T05:44:06;8.80;;;3.33;;
23404;SDS011;11875;49.356;2.718;2023-04-15T05:46:31;7.13;;;3.50;;
23404;SDS011;11875;49.356;2.718;2023-04-15T05:48:57;4.70;;;3.70;;
23404;SDS011;11875;49.356;2.718;2023-04-15T05:51:23;4.43;;;3.40;;
23404;SDS011;11875;49.356;2.718;2023-04-15T05:53:48;5.70;;;3.23;;
23404;SDS011;11875;49.356;2.718;2023-04-15T05:56:14;4.70;;;3.53;;
23404;SDS011;11875;49.356;2.718;2023-04-15T05:58:39;5.27;;;3.37;;
23404;SDS011;11875;49.356;2.718;2023-04-15T06:01:05;4.43;;;3.73;;
23404;SDS011;11875;49.356;2.718;2023-04-15T06:03:31;7.27;;;3.50;;
23404;SDS011;11875;49.356;2.718;2023-04-15T06:05:57;4.67;;;3.90;;
23404;SDS011;11875;49.356;2.718;2023-04-15T06:08:23;5.67;;;4.00;;
23404;SDS011;11875;49.356;2.718;2023-04-15T06:10:48;6.07;;;3.80;;
23404;SDS011;11875;49.356;2.718;2023-04-15T06:13:14;3.87;;;3.30;;
23404;SDS011;11875;49.356;2.718;2023-04-15T06:15:41;6.10;;;3.50;;
23404;SDS011;11875;49.356;2.718;2023-04-15T06:18:07;4.77;;;3.47;;
23404;SDS011;11875;49.356;2.718;2023-04-15T06:20:32;4.40;;;3.37;;
23404;SDS011;11875;49.356;2.718;2023-04-15T06:22:58;6.27;;;3.17;;
23404;SDS011;11875;49.356;2.718;2023-04-15T06:25:23;6.77;;;3.80;;
23404;SDS011;11875;49.356;2.718;2023-04-15T06:27:49;3.57;;;3.00;;
23404;SDS011;11875;49.356;2.718;2023-04-15T06:30:14;4.27;;;3.03;;
23404;SDS011;11875;49.356;2.718;2023-04-15T06:32:40;5.33;;;2.73;;
23404;SDS011;11875;49.356;2.718;2023-04-15T06:35:06;3.43;;;2.70;;
23404;SDS011;11875;49.356;2.718;2023-04-15T06:37:32;3.63;;;2.50;;
23404;SDS011;11875;49.356;2.718;2023-04-15T06:39:57;4.33;;;2.90;;
23404;SDS011;11875;49.356;2.718;2023-04-15T06:42:23;3.57;;;2.90;;
23404;SDS011;11875;49.356;2.718;2023-04-15T06:44:48;3.47;;;3.00;;
23404;SDS011;11875;49.356;2.718;2023-04-15T06:47:14;3.00;;;2.70;;
23404;SDS011;11875;49.356;2.718;2023-04-15T06:49:40;4.10;;;3.00;;
23404;SDS011;11875;49.356;2.718;2023-04-15T06:52:07;3.37;;;2.67;;
23404;SDS011;11875;49.356;2.718;2023-04-15T06:54:33;3.30;;;3.00;;
23404;SDS011;11875;49.356;2.718;2023-04-15T06:56:58;5.87;;;3.13;;
23404;SDS011;11875;49.356;2.718;2023-04-15T06:59:24;7.23;;;5.23;;
23404;SDS011;11875;49.356;2.718;2023-04-15T07:01:51;3.20;;;2.90;;
23404;SDS011;11875;49.356;2.718;2023-04-15T07:04:16;3.87;;;3.27;;
23404;SDS011;11875;49.356;2.718;2023-04-15T07:06:42;3.43;;;3.10;;
23404;SDS011;11875;49.356;2.718;2023-04-15T07:09:08;4.27;;;3.57;;
23404;SDS011;11875;49.356;2.718;2023-04-15T07:11:34;3.50;;;3.10;;
23404;SDS011;11875;49.356;2.718;2023-04-15T07:14:00;4.30;;;3.20;;
23404;SDS011;11875;49.356;2.718;2023-04-15T07:16:26;4.40;;;3.53;;
23404;SDS011;11875;49.356;2.718;2023-04-15T07:18:51;4.63;;;3.40;;
23404;SDS011;11875;49.356;2.718;2023-04-15T07:21:17;4.07;;;3.07;;
23404;SDS011;11875;49.356;2.718;2023-04-15T07:23:42;5.57;;;3.53;;
23404;SDS011;11875;49.356;2.718;2023-04-15T07:26:08;4.77;;;3.17;;
23404;SDS011;11875;49.356;2.718;2023-04-15T07:28:35;4.40;;;3.57;;
23404;SDS011;11875;49.356;2.718;2023-04-15T07:31:00;3.77;;;3.20;;
23404;SDS011;11875;49.356;2.718;2023-04-15T07:33:26;4.63;;;3.30;;
23404;SDS011;11875;49.356;2.718;2023-04-15T07:35:51;6.00;;;2.90;;
23404;SDS011;11875;49.356;2.718;2023-04-15T07:38:17;3.03;;;2.73;;
23404;SDS011;11875;49.356;2.718;2023-04-15T07:40:42;3.40;;;3.10;;
23404;SDS011;11875;49.356;2.718;2023-04-15T07:43:08;3.50;;;2.83;;
23404;SDS011;11875;49.356;2.718;2023-04-15T07:45:34;4.23;;;2.70;;
23404;SDS011;11875;49.356;2.718;2023-04-15T07:48:03;5.20;;;3.67;;
23404;SDS011;11875;49.356;2.718;2023-04-15T07:50:30;2.97;;;2.57;;
23404;SDS011;11875;49.356;2.718;2023-04-15T07:52:56;4.73;;;2.40;;
23404;SDS011;11875;49.356;2.718;2023-04-15T07:55:22;2.60;;;2.40;;
23404;SDS011;11875;49.356;2.718;2023-04-15T07:57:48;3.37;;;2.50;;
23404;SDS011;11875;49.356;2.718;2023-04-15T08:00:13;5.17;;;2.43;;
23404;SDS011;11875;49.356;2.718;2023-04-15T08:02:40;2.80;;;2.60;;
23404;SDS011;11875;49.356;2.718;2023-04-15T08:05:07;3.33;;;2.43;;
23404;SDS011;11875;49.356;2.718;2023-04-15T08:07:33;2.63;;;2.43;;
23404;SDS011;11875;49.356;2.718;2023-04-15T08:09:59;3.57;;;2.70;;
23404;SDS011;11875;49.356;2.718;2023-04-15T08:12:25;2.63;;;2.43;;
23404;SDS011;11875;49.356;2.718;2023-04-15T08:14:51;5.23;;;3.13;;
23404;SDS011;11875;49.356;2.718;2023-04-15T08:17:16;3.47;;;2.90;;
23404;SDS011;11875;49.356;2.718;2023-04-15T08:19:42;4.17;;;3.33;;
23404;SDS011;11875;49.356;2.718;2023-04-15T08:22:08;4.67;;;3.37;;
23404;SDS011;11875;49.356;2.718;2023-04-15T08:24:34;5.43;;;4.20;;
23404;SDS011;11875;49.356;2.718;2023-04-15T08:27:00;5.73;;;4.17;;
23404;SDS011;11875;49.356;2.718;2023-04-15T08:29:28;8.13;;;4.13;;
23404;SDS011;11875;49.356;2.718;2023-04-15T08:31:54;6.20;;;4.80;;
23404;SDS011;11875;49.356;2.718;2023-04-15T08:34:19;5.00;;;4.50;;
23404;SDS011;11875;49.356;2.718;2023-04-15T08:36:45;6.33;;;5.20;;
23404;SDS011;11875;49.356;2.718;2023-04-15T08:39:11;5.97;;;4.97;;
23404;SDS011;11875;49.356;2.718;2023-04-15T08:41:40;7.87;;;5.23;;
23404;SDS011;11875;49.356;2.718;2023-04-15T08:44:15;5.63;;;5.00;;
23404;SDS011;11875;49.356;2.718;2023-04-15T08:46:41;11.63;;;6.10;;
23404;SDS011;11875;49.356;2.718;2023-04-15T08:49:09;7.73;;;6.50;;
23404;SDS011;11875;49.356;2.718;2023-04-15T08:51:37;6.10;;;5.50;;
23404;SDS011;11875;49.356;2.718;2023-04-15T08:54:07;8.33;;;5.87;;
23404;SDS011;11875;49.356;2.718;2023-04-15T08:56:33;7.37;;;5.47;;
23404;SDS011;11875;49.356;2.718;2023-04-15T08:59:00;6.07;;;5.43;;
23404;SDS011;11875;49.356;2.718;2023-04-15T09:01:27;6.83;;;5.93;;
23404;SDS011;11875;49.356;2.718;2023-04-15T09:03:53;6.27;;;5.67;;
23404;SDS011;11875;49.356;2.718;2023-04-15T09:06:20;6.10;;;5.50;;
23404;SDS011;11875;49.356;2.718;2023-04-15T09:08:47;6.27;;;5.47;;
23404;SDS011;11875;49.356;2.718;2023-04-15T09:11:13;8.07;;;6.10;;
23404;SDS011;11875;49.356;2.718;2023-04-15T09:13:38;7.70;;;6.03;;
23404;SDS011;11875;49.356;2.718;2023-04-15T09:16:05;8.13;;;5.30;;
23404;SDS011;11875;49.356;2.718;2023-04-15T09:18:33;6.67;;;5.87;;
23404;SDS011;11875;49.356;2.718;2023-04-15T09:21:10;7.87;;;5.63;;
23404;SDS011;11875;49.356;2.718;2023-04-15T09:23:38;5.85;;;5.25;;
23404;SDS011;11875;49.356;2.718;2023-04-15T09:26:05;5.27;;;4.77;;
23404;SDS011;11875;49.356;2.718;2023-04-15T09:28:31;5.70;;;5.10;;
23404;SDS011;11875;49.356;2.718;2023-04-15T09:30:57;8.90;;;5.13;;
23404;SDS011;11875;49.356;2.718;2023-04-15T09:33:24;6.20;;;4.87;;
23404;SDS011;11875;49.356;2.718;2023-04-15T09:35:58;5.73;;;5.10;;
23404;SDS011;11875;49.356;2.718;2023-04-15T09:38:29;4.60;;;4.13;;
23404;SDS011;11875;49.356;2.718;2023-04-15T09:40:55;5.67;;;4.17;;
23404;SDS011;11875;49.356;2.718;2023-04-15T09:43:22;4.50;;;3.80;;
23404;SDS011;11875;49.356;2.718;2023-04-15T09:46:00;6.03;;;3.57;;
23404;SDS011;11875;49.356;2.718;2023-04-15T09:48:26;3.50;;;3.20;;
23404;SDS011;11875;49.356;2.718;2023-04-15T09:50:52;4.03;;;3.53;;
23404;SDS011;11875;49.356;2.718;2023-04-15T09:53:22;3.60;;;3.13;;
23404;SDS011;11875;49.356;2.718;2023-04-15T09:55:53;4.40;;;3.23;;
23404;SDS011;11875;49.356;2.718;2023-04-15T09:58:25;2.50;;;2.30;;
23404;SDS011;11875;49.356;2.718;2023-04-15T10:00:53;5.37;;;3.67;;
23404;SDS011;11875;49.356;2.718;2023-04-15T10:03:24;3.30;;;2.80;;
23404;SDS011;11875;49.356;2.718;2023-04-15T10:05:52;3.70;;;3.00;;
23404;SDS011;11875;49.356;2.718;2023-04-15T10:08:21;3.67;;;2.83;;
23404;SDS011;11875;49.356;2.718;2023-04-15T10:10:49;5.38;;;3.13;;
23404;SDS011;11875;49.356;2.718;2023-04-15T10:13:19;2.97;;;2.73;;
23404;SDS011;11875;49.356;2.718;2023-04-15T10:15:58;4.67;;;2.97;;
23404;SDS011;11875;49.356;2.718;2023-04-15T10:18:27;3.50;;;3.00;;
23404;SDS011;11875;49.356;2.718;2023-04-15T10:20:53;4.47;;;3.30;;
23404;SDS011;11875;49.356;2.718;2023-04-15T10:23:19;27.70;;;14.57;;
23404;SDS011;11875;49.356;2.718;2023-04-15T10:25:51;3.45;;;3.15;;
23404;SDS011;11875;49.356;2.718;2023-04-15T10:28:18;2.63;;;2.42;;
23404;SDS011;11875;49.356;2.718;2023-04-15T10:30:44;4.72;;;2.80;;
23404;SDS011;11875;49.356;2.718;2023-04-15T10:33:12;3.77;;;2.77;;
23404;SDS011;11875;49.356;2.718;2023-04-15T10:35:40;6.63;;;3.40;;
23404;SDS011;11875;49.356;2.718;2023-04-15T10:41:11;4.28;;;2.70;;
23404;SDS011;11875;49.356;2.718;2023-04-15T10:43:37;4.32;;;2.75;;
23404;SDS011;11875;49.356;2.718;2023-04-15T10:46:04;2.38;;;2.08;;
23404;SDS011;11875;49.356;2.718;2023-04-15T10:48:30;3.65;;;2.65;;
23404;SDS011;11875;49.356;2.718;2023-04-15T10:50:58;3.25;;;2.40;;
23404;SDS011;11875;49.356;2.718;2023-04-15T10:53:27;3.30;;;2.90;;
23404;SDS011;11875;49.356;2.718;2023-04-15T10:55:53;4.10;;;2.90;;
23404;SDS011;11875;49.356;2.718;2023-04-15T10:58:22;4.10;;;3.10;;
23404;SDS011;11875;49.356;2.718;2023-04-15T11:00:50;3.10;;;2.50;;
23404;SDS011;11875;49.356;2.718;2023-04-15T11:03:32;3.28;;;2.50;;
23404;SDS011;11875;49.356;2.718;2023-04-15T11:06:01;3.90;;;2.72;;
23404;SDS011;11875;49.356;2.718;2023-04-15T11:08:51;6.13;;;2.50;;
23404;SDS011;11875;49.356;2.718;2023-04-15T11:12:03;4.80;;;2.55;;
23404;SDS011;11875;49.356;2.718;2023-04-15T11:14:27;3.25;;;2.90;;
23404;SDS011;11875;49.356;2.718;2023-04-15T11:16:53;3.90;;;3.10;;
23404;SDS011;11875;49.356;2.718;2023-04-15T11:19:18;5.68;;;3.40;;
23404;SDS011;11875;49.356;2.718;2023-04-15T11:21:44;12.55;;;3.63;;
23404;SDS011;11875;49.356;2.718;2023-04-15T11:24:09;4.32;;;3.58;;
23404;SDS011;11875;49.356;2.718;2023-04-15T11:26:35;5.63;;;3.30;;
23404;SDS011;11875;49.356;2.718;2023-04-15T11:29:01;4.68;;;3.67;;
23404;SDS011;11875;49.356;2.718;2023-04-15T11:31:26;4.45;;;3.42;;
23404;SDS011;11875;49.356;2.718;2023-04-15T11:33:54;4.38;;;3.65;;
23404;SDS011;11875;49.356;2.718;2023-04-15T11:36:25;5.35;;;3.50;;
23404;SDS011;11875;49.356;2.718;2023-04-15T11:38:52;4.57;;;3.90;;
23404;SDS011;11875;49.356;2.718;2023-04-15T11:41:21;5.72;;;3.88;;
23404;SDS011;11875;49.356;2.718;2023-04-15T11:43:48;5.55;;;3.80;;
23404;SDS011;11875;49.356;2.718;2023-04-15T11:46:14;4.25;;;3.53;;
23404;SDS011;11875;49.356;2.718;2023-04-15T11:48:41;5.85;;;4.03;;
23404;SDS011;11875;49.356;2.718;2023-04-15T11:51:08;4.88;;;3.63;;
23404;SDS011;11875;49.356;2.718;2023-04-15T11:53:36;7.32;;;4.68;;
23404;SDS011;11875;49.356;2.718;2023-04-15T11:56:03;5.32;;;4.30;;
23404;SDS011;11875;49.356;2.718;2023-04-15T11:58:29;5.85;;;3.85;;
23404;SDS011;11875;49.356;2.718;2023-04-15T12:00:58;5.03;;;3.92;;
23404;SDS011;11875;49.356;2.718;2023-04-15T12:03:41;9.48;;;3.60;;
23404;SDS011;11875;49.356;2.718;2023-04-15T12:08:47;5.00;;;3.90;;
23404;SDS011;11875;49.356;2.718;2023-04-15T12:11:13;4.65;;;3.80;;
23404;SDS011;11875;49.356;2.718;2023-04-15T12:13:52;4.30;;;3.55;;
23404;SDS011;11875;49.356;2.718;2023-04-15T12:16:20;4.65;;;3.58;;
23404;SDS011;11875;49.356;2.718;2023-04-15T12:18:47;4.80;;;3.47;;
23404;SDS011;11875;49.356;2.718;2023-04-15T12:21:17;4.38;;;3.28;;
23404;SDS011;11875;49.356;2.718;2023-04-15T12:23:48;6.15;;;3.85;;
23404;SDS011;11875;49.356;2.718;2023-04-15T12:26:14;6.38;;;3.38;;
23404;SDS011;11875;49.356;2.718;2023-04-15T12:28:41;4.95;;;3.53;;
23404;SDS011;11875;49.356;2.718;2023-04-15T12:31:07;5.15;;;2.80;;
23404;SDS011;11875;49.356;2.718;2023-04-15T12:33:34;3.70;;;2.60;;
23404;SDS011;11875;49.356;2.718;2023-04-15T12:35:59;3.00;;;2.70;;
23404;SDS011;11875;49.356;2.718;2023-04-15T12:38:25;5.20;;;3.20;;
23404;SDS011;11875;49.356;2.718;2023-04-15T12:40:50;4.57;;;2.72;;
23404;SDS011;11875;49.356;2.718;2023-04-15T12:43:16;5.22;;;3.05;;
23404;SDS011;11875;49.356;2.718;2023-04-15T12:45:42;5.45;;;2.90;;
23404;SDS011;11875;49.356;2.718;2023-04-15T12:48:07;4.05;;;2.65;;
23404;SDS011;11875;49.356;2.718;2023-04-15T12:50:33;3.97;;;3.17;;
23404;SDS011;11875;49.356;2.718;2023-04-15T12:53:00;4.07;;;2.55;;
23404;SDS011;11875;49.356;2.718;2023-04-15T12:55:27;3.75;;;2.60;;
23404;SDS011;11875;49.356;2.718;2023-04-15T12:57:54;2.65;;;2.40;;
23404;SDS011;11875;49.356;2.718;2023-04-15T13:00:20;8.00;;;3.13;;
23404;SDS011;11875;49.356;2.718;2023-04-15T13:02:46;6.07;;;3.53;;
23404;SDS011;11875;49.356;2.718;2023-04-15T13:05:12;5.18;;;3.35;;
23404;SDS011;11875;49.356;2.718;2023-04-15T13:07:39;5.13;;;2.90;;
23404;SDS011;11875;49.356;2.718;2023-04-15T13:10:05;4.57;;;3.22;;
23404;SDS011;11875;49.356;2.718;2023-04-15T13:12:32;4.57;;;3.10;;
23404;SDS011;11875;49.356;2.718;2023-04-15T13:15:01;4.38;;;2.58;;
23404;SDS011;11875;49.356;2.718;2023-04-15T13:17:28;4.88;;;2.38;;
23404;SDS011;11875;49.356;2.718;2023-04-15T13:19:53;4.25;;;2.95;;
23404;SDS011;11875;49.356;2.718;2023-04-15T13:22:19;4.70;;;2.67;;
23404;SDS011;11875;49.356;2.718;2023-04-15T13:24:45;3.67;;;2.88;;
23404;SDS011;11875;49.356;2.718;2023-04-15T13:27:11;4.53;;;2.80;;
23404;SDS011;11875;49.356;2.718;2023-04-15T13:29:36;4.85;;;2.95;;
23404;SDS011;11875;49.356;2.718;2023-04-15T13:32:04;4.40;;;3.45;;
23404;SDS011;11875;49.356;2.718;2023-04-15T13:34:30;5.25;;;3.20;;
23404;SDS011;11875;49.356;2.718;2023-04-15T13:36:56;5.43;;;2.90;;
23404;SDS011;11875;49.356;2.718;2023-04-15T13:39:21;5.07;;;3.40;;
23404;SDS011;11875;49.356;2.718;2023-04-15T13:41:47;4.82;;;3.50;;
23404;SDS011;11875;49.356;2.718;2023-04-15T13:44:12;4.22;;;3.38;;
23404;SDS011;11875;49.356;2.718;2023-04-15T13:46:38;7.20;;;3.20;;
23404;SDS011;11875;49.356;2.718;2023-04-15T13:49:06;6.18;;;3.47;;
23404;SDS011;11875;49.356;2.718;2023-04-15T13:51:32;6.13;;;3.45;;
23404;SDS011;11875;49.356;2.718;2023-04-15T13:54:00;4.35;;;3.08;;
23404;SDS011;11875;49.356;2.718;2023-04-15T13:56:25;7.95;;;3.80;;
23404;SDS011;11875;49.356;2.718;2023-04-15T13:58:51;6.72;;;3.50;;
23404;SDS011;11875;49.356;2.718;2023-04-15T14:01:17;4.88;;;3.50;;
23404;SDS011;11875;49.356;2.718;2023-04-15T14:03:42;5.57;;;3.67;;
23404;SDS011;11875;49.356;2.718;2023-04-15T14:06:08;5.80;;;3.47;;
23404;SDS011;11875;49.356;2.718;2023-04-15T14:08:33;4.53;;;3.35;;
23404;SDS011;11875;49.356;2.718;2023-04-15T14:10:59;5.70;;;3.67;;
23404;SDS011;11875;49.356;2.718;2023-04-15T14:13:25;13.32;;;4.03;;
23404;SDS011;11875;49.356;2.718;2023-04-15T14:15:50;5.60;;;3.60;;
23404;SDS011;11875;49.356;2.718;2023-04-15T14:18:16;7.95;;;3.90;;
23404;SDS011;11875;49.356;2.718;2023-04-15T14:20:41;5.93;;;4.25;;
23404;SDS011;11875;49.356;2.718;2023-04-15T14:23:07;5.63;;;4.15;;
23404;SDS011;11875;49.356;2.718;2023-04-15T14:25:32;5.43;;;4.38;;
23404;SDS011;11875;49.356;2.718;2023-04-15T14:27:58;8.85;;;3.88;;
23404;SDS011;11875;49.356;2.718;2023-04-15T14:30:24;5.75;;;4.00;;
23404;SDS011;11875;49.356;2.718;2023-04-15T14:32:50;7.25;;;4.40;;
23404;SDS011;11875;49.356;2.718;2023-04-15T14:35:15;6.82;;;4.55;;
23404;SDS011;11875;49.356;2.718;2023-04-15T14:37:41;6.80;;;4.20;;
23404;SDS011;11875;49.356;2.718;2023-04-15T14:40:07;8.25;;;4.00;;
23404;SDS011;11875;49.356;2.718;2023-04-15T14:42:33;5.90;;;4.82;;
23404;SDS011;11875;49.356;2.718;2023-04-15T14:44:58;8.05;;;4.47;;
23404;SDS011;11875;49.356;2.718;2023-04-15T14:47:24;6.30;;;4.38;;
23404;SDS011;11875;49.356;2.718;2023-04-15T14:49:49;9.43;;;4.82;;